Time;durP1;ratioP1;P1;durP2;ratioP2;P2;SDS_P1;SDS_P2;PMS_P1;PMS_P2;Temp;Humidity;BMP_temperature;BMP_pressure;BME280_temperature;BME280_humidity;BME280_pressure;Samples;Min_cycle;Max_cycle;Signal;HPM_P1;HPM_P2
2023/08/10 00:02:09;;;;;;;4.25;2.65;;;16.00;99.90;;;17.94;61.36;98014.91;5033388;28;20053;-57
2023/08/10 00:04:36;;;;;;;3.50;3.20;;;16.00;99.90;;;17.88;61.68;98020.03;5031729;28;20060;-57
2023/08/10 00:07:04;;;;;;;4.07;3.10;;;15.90;99.90;;;17.83;61.62;98017.06;5032868;28;20041;-55
2023/08/10 00:09:32;;;;;;;3.50;2.95;;;15.90;99.90;;;17.80;61.79;98020.19;5032246;28;20057;-54
2023/08/10 00:12:00;;;;;;;3.78;3.00;;;15.90;99.90;;;17.77;61.90;98017.88;5032868;28;20057;-57
2023/08/10 00:14:27;;;;;;;3.55;3.00;;;15.90;99.90;;;17.74;61.81;98017.44;5032647;28;20420;-56
2023/08/10 00:16:55;;;;;;;3.33;2.85;;;15.80;99.90;;;17.71;61.81;98011.41;5032722;28;20041;-53
2023/08/10 00:19:23;;;;;;;3.22;2.63;;;15.80;99.90;;;17.68;61.68;98010.97;5030882;28;20041;-55
2023/08/10 00:21:50;;;;;;;5.03;2.80;;;15.80;99.90;;;17.64;61.74;98013.25;5032425;28;20037;-53
2023/08/10 00:24:18;;;;;;;3.45;2.60;;;15.80;99.90;;;17.62;61.49;98007.25;5032565;28;20085;-53
2023/08/10 00:26:46;;;;;;;3.53;2.75;;;15.70;99.90;;;17.61;61.54;98008.25;5024425;28;20048;-55
2023/08/10 00:29:13;;;;;;;3.47;2.80;;;15.80;99.90;;;17.58;61.60;98007.81;5031628;28;20057;-53
2023/08/10 00:31:41;;;;;;;4.35;2.83;;;15.60;99.90;;;17.55;61.49;98013.59;5032350;28;20528;-54
2023/08/10 00:34:08;;;;;;;4.38;2.78;;;15.60;99.90;;;17.47;61.57;98011.91;5031124;28;20045;-56
2023/08/10 00:36:36;;;;;;;4.38;2.72;;;15.50;99.90;;;17.37;61.49;97998.78;5031825;28;20053;-55
2023/08/10 00:39:04;;;;;;;4.57;2.75;;;15.40;99.90;;;17.35;61.41;98000.84;5014326;28;20436;-53
2023/08/10 00:41:32;;;;;;;5.18;3.65;;;15.40;99.90;;;17.34;61.22;97999.16;5029978;28;20037;-53
2023/08/10 00:44:00;;;;;;;3.83;2.70;;;15.40;99.90;;;17.31;61.25;98013.84;5032161;28;20057;-53
2023/08/10 00:46:27;;;;;;;3.95;2.97;;;15.40;99.90;;;17.26;61.13;98000.13;5032114;28;20060;-54
2023/08/10 00:48:55;;;;;;;3.72;2.78;;;15.30;99.90;;;17.21;60.73;98007.94;5022420;28;20056;-53
2023/08/10 00:51:23;;;;;;;3.22;2.55;;;15.30;99.90;;;17.20;60.68;98016.25;5031719;28;20053;-52
2023/08/10 00:53:51;;;;;;;3.55;2.70;;;15.30;99.90;;;17.16;60.49;98009.56;5030974;28;20112;-53
2023/08/10 00:56:20;;;;;;;3.33;2.47;;;15.30;99.90;;;17.17;60.54;98011.25;5031687;28;20046;-53
2023/08/10 00:58:48;;;;;;;4.32;2.25;;;15.30;99.90;;;17.16;60.12;98018.47;5030474;28;20490;-53
2023/08/10 01:01:16;;;;;;;3.78;2.55;;;15.30;99.90;;;17.13;59.93;98014.31;5029891;28;20049;-55
2023/08/10 01:03:44;;;;;;;2.88;2.33;;;15.20;99.90;;;17.09;59.84;98004.13;5030568;28;20041;-54
2023/08/10 01:06:32;;;;;;;6.35;2.30;;;15.20;99.90;;;17.06;59.80;98010.75;5030613;28;20037;-52
2023/08/10 01:09:22;;;;;;;2.90;2.15;;;15.20;99.90;;;17.06;59.83;98008.06;5024649;28;20041;-53
2023/08/10 01:12:10;;;;;;;3.63;2.67;;;15.20;99.90;;;17.07;59.92;98011.56;5031844;28;20041;-52
2023/08/10 01:15:05;;;;;;;5.20;3.28;;;15.20;99.90;;;17.06;60.07;98008.06;5031697;28;20053;-55
2023/08/10 01:17:39;;;;;;;3.05;2.25;;;15.20;99.90;;;17.03;59.94;98007.59;5030130;28;20050;-56
2023/08/10 01:20:11;;;;;;;2.88;2.63;;;15.10;99.90;;;16.98;60.27;98008.16;5029570;28;20049;-55
2023/08/10 01:23:00;;;;;;;4.15;2.40;;;15.10;99.90;;;16.93;60.02;98013.31;5029902;28;20053;-56
2023/08/10 01:25:29;;;;;;;3.35;2.50;;;15.00;99.90;;;16.86;60.04;98013.22;5030121;28;20057;-54
2023/08/10 01:27:57;;;;;;;3.90;2.80;;;14.90;99.90;;;16.80;60.13;98008.59;5029757;28;20046;-56
2023/08/10 01:30:24;;;;;;;3.58;2.58;;;14.90;99.90;;;16.77;60.26;98005.47;5028896;28;20053;-55
2023/08/10 01:32:52;;;;;;;3.45;2.13;;;14.90;99.90;;;16.73;60.30;98013.09;5014231;28;20041;-54
2023/08/10 01:35:20;;;;;;;3.72;1.92;;;14.80;99.90;;;16.69;60.28;98011.78;5031288;28;20500;-53
2023/08/10 01:37:48;;;;;;;3.17;2.28;;;14.80;99.90;;;16.70;60.32;98003.53;5031223;28;20532;-56
2023/08/10 01:40:16;;;;;;;4.90;2.72;;;14.80;99.90;;;16.70;60.09;98008.09;5030672;28;20077;-54
2023/08/10 01:42:44;;;;;;;3.05;2.40;;;14.80;99.90;;;16.68;60.25;98007.47;5031004;28;20045;-54
2023/08/10 01:45:12;;;;;;;2.85;2.40;;;14.80;99.90;;;16.60;60.25;98005.72;5029742;28;20045;-56
2023/08/10 01:47:59;;;;;;;3.85;2.42;;;14.70;99.90;;;16.48;60.44;98007.25;5029552;28;20054;-54
2023/08/10 01:50:29;;;;;;;3.67;2.28;;;14.60;99.90;;;16.43;60.26;98010.50;5029723;28;20045;-55
2023/08/10 01:53:08;;;;;;;3.05;2.50;;;14.60;99.90;;;16.50;60.11;98007.91;5013855;28;20045;-54
2023/08/10 01:55:37;;;;;;;3.20;2.80;;;14.60;99.90;;;16.53;60.18;98012.88;5029983;28;20053;-55
2023/08/10 01:58:05;;;;;;;3.45;2.60;;;14.70;99.90;;;16.57;60.16;98016.00;5029425;28;20076;-50
2023/08/10 02:00:37;;;;;;;3.10;2.17;;;14.70;99.90;;;16.58;60.15;98010.47;5013045;28;20394;-54
2023/08/10 02:03:05;;;;;;;3.83;2.95;;;14.70;99.90;;;16.61;60.07;98009.22;5030013;28;20029;-53
2023/08/10 02:05:33;;;;;;;4.80;2.92;;;14.80;99.90;;;16.67;59.98;98011.16;5029684;28;20046;-54
2023/08/10 02:08:01;;;;;;;4.45;2.45;;;14.90;99.90;;;16.69;59.71;98017.16;5021349;28;20057;-55
2023/08/10 02:10:29;;;;;;;3.78;2.60;;;15.00;99.90;;;16.69;59.87;98017.16;5028912;28;20060;-54
2023/08/10 02:12:58;;;;;;;3.42;2.70;;;14.90;99.90;;;16.66;59.76;98017.56;5021835;28;20285;-55
2023/08/10 02:15:25;;;;;;;3.70;2.80;;;14.90;99.90;;;16.64;59.82;98017.75;5029679;28;20049;-54
2023/08/10 02:17:54;;;;;;;4.65;3.15;;;14.80;99.90;;;16.62;59.75;98017.13;5029891;28;20049;-55
2023/08/10 02:20:23;;;;;;;3.13;2.63;;;14.80;99.90;;;16.62;59.93;98022.50;5030721;28;20420;-52
2023/08/10 02:22:52;;;;;;;4.15;2.85;;;14.80;99.90;;;16.61;60.09;98014.59;5030876;28;20049;-54
2023/08/10 02:25:22;;;;;;;4.28;2.78;;;14.80;99.90;;;16.60;60.15;98021.84;5029169;28;20527;-53
2023/08/10 02:27:50;;;;;;;3.25;2.67;;;14.80;99.90;;;16.58;60.02;98015.84;5030597;28;20045;-54
2023/08/10 02:30:19;;;;;;;4.03;2.70;;;14.80;99.90;;;16.57;60.23;98024.06;5028739;28;20428;-51
2023/08/10 02:32:47;;;;;;;2.95;2.53;;;14.80;99.90;;;16.54;60.24;98019.94;5029118;28;20505;-56
2023/08/10 02:35:15;;;;;;;4.72;2.75;;;14.70;99.90;;;16.52;60.27;98030.84;5029330;28;20041;-55
2023/08/10 02:37:43;;;;;;;4.03;3.20;;;14.70;99.90;;;16.52;60.35;98027.34;5030687;28;20413;-55
2023/08/10 02:40:11;;;;;;;4.72;2.75;;;14.70;99.90;;;16.50;60.72;98022.16;5028766;28;20061;-54
2023/08/10 02:42:40;;;;;;;3.40;2.75;;;14.80;99.90;;;16.51;60.80;98023.81;5029246;28;20061;-54
2023/08/10 02:45:09;;;;;;;4.20;2.90;;;14.80;99.90;;;16.52;60.87;98020.09;5028844;28;20409;-56
2023/08/10 02:47:37;;;;;;;4.18;2.85;;;14.80;99.90;;;16.51;60.76;98028.34;5028827;28;20524;-53
2023/08/10 02:50:06;;;;;;;3.30;2.95;;;14.70;99.90;;;16.50;60.50;98027.53;5028732;28;20057;-52
2023/08/10 02:52:34;;;;;;;3.22;2.92;;;14.70;99.90;;;16.48;60.80;98034.13;5030391;28;20050;-53
2023/08/10 02:55:03;;;;;;;4.15;2.92;;;14.70;99.90;;;16.43;60.41;98025.78;5029492;28;20045;-55
2023/08/10 02:57:31;;;;;;;4.30;3.08;;;14.70;99.90;;;16.36;60.41;98027.56;5028829;28;20072;-55
2023/08/10 02:59:59;;;;;;;4.45;3.83;;;14.50;99.90;;;16.32;60.54;98027.09;5032897;28;20410;-54
2023/08/10 03:02:28;;;;;;;3.50;2.53;;;14.50;99.90;;;16.30;60.61;98024.63;5034003;28;20037;-52
2023/08/10 03:04:57;;;;;;;3.83;3.20;;;14.50;99.90;;;16.28;60.58;98029.31;5032180;28;20042;-52
2023/08/10 03:07:26;;;;;;;4.88;3.58;;;14.50;99.90;;;16.28;60.79;98031.19;5017010;28;20056;-56
2023/08/10 03:09:56;;;;;;;5.70;3.42;;;14.50;99.90;;;16.28;60.97;98021.25;5016025;28;20060;-53
2023/08/10 03:12:26;;;;;;;4.68;4.10;;;14.50;99.90;;;16.27;61.10;98016.94;5032582;28;20049;-55
2023/08/10 03:14:54;;;;;;;4.70;3.80;;;14.50;99.90;;;16.26;60.97;98014.44;5032046;28;20060;-55
2023/08/10 03:17:21;;;;;;;5.25;3.63;;;14.50;99.90;;;16.25;60.73;98018.16;5032419;28;20064;-54
2023/08/10 03:19:51;;;;;;;4.70;3.60;;;14.50;99.90;;;16.23;60.98;98006.75;5031932;28;20056;-55
2023/08/10 03:22:20;;;;;;;4.03;3.38;;;14.50;99.90;;;16.21;60.69;98006.94;5033653;28;20042;-53
2023/08/10 03:24:48;;;;;;;4.80;3.95;;;14.40;99.90;;;16.20;60.75;98010.63;5032048;28;20060;-55
2023/08/10 03:27:16;;;;;;;4.38;3.40;;;14.40;99.90;;;16.19;60.91;98013.50;5032830;28;20044;-55
2023/08/10 03:29:44;;;;;;;3.65;3.15;;;14.40;99.90;;;16.14;60.75;98014.06;5031750;28;20045;-52
2023/08/10 03:32:11;;;;;;;5.38;3.53;;;14.30;99.90;;;16.12;60.94;98018.81;5031739;28;20049;-54
2023/08/10 03:34:39;;;;;;;7.55;3.90;;;14.30;99.90;;;16.07;60.86;98010.47;5015618;28;20057;-54
2023/08/10 03:37:07;;;;;;;4.90;4.00;;;14.30;99.90;;;16.04;60.98;98019.75;5032193;28;20412;-53
2023/08/10 03:39:35;;;;;;;8.57;4.03;;;14.20;99.90;;;16.03;61.23;98022.59;5031984;28;20497;-55
2023/08/10 03:42:03;;;;;;;4.70;3.55;;;14.20;99.90;;;16.00;61.16;98021.13;5013484;28;20048;-54
2023/08/10 03:44:31;;;;;;;5.10;4.13;;;14.20;99.90;;;15.98;61.43;98022.34;5033359;28;20041;-52
2023/08/10 03:46:58;;;;;;;5.25;3.45;;;14.20;99.90;;;15.99;61.10;98038.25;5033253;28;20047;-54
2023/08/10 03:49:26;;;;;;;4.82;3.40;;;14.20;99.90;;;15.97;61.15;98034.09;5031666;28;20554;-54
2023/08/10 03:51:54;;;;;;;5.75;3.75;;;14.20;99.90;;;15.94;61.18;98035.31;5031332;28;20076;-51
2023/08/10 03:54:22;;;;;;;4.53;3.63;;;14.10;99.90;;;15.90;61.29;98040.22;5033176;28;20046;-54
2023/08/10 03:56:49;;;;;;;8.68;3.95;;;14.00;99.90;;;15.88;61.41;98041.44;5031292;28;20064;-55
2023/08/10 03:59:17;;;;;;;5.05;3.20;;;14.00;99.90;;;15.86;61.33;98035.41;5033061;28;20045;-53
2023/08/10 04:01:45;;;;;;;4.38;3.60;;;14.00;99.90;;;15.82;61.46;98034.94;5031227;28;20420;-55
2023/08/10 04:04:14;;;;;;;4.78;3.45;;;14.00;99.90;;;15.82;61.56;98036.78;5031320;28;20041;-55
2023/08/10 04:06:42;;;;;;;4.55;3.05;;;14.00;99.90;;;15.82;61.55;98031.41;5031510;28;20042;-55
2023/08/10 04:09:09;;;;;;;5.47;3.47;;;14.00;99.90;;;15.79;61.74;98029.94;5014626;28;20425;-50
2023/08/10 04:11:37;;;;;;;5.05;3.78;;;14.00;99.90;;;15.78;61.62;98032.81;5031626;28;20512;-55
2023/08/10 04:14:05;;;;;;;4.20;3.50;;;14.00;99.90;;;15.75;61.84;98034.00;5032647;28;20432;-52
2023/08/10 04:16:32;;;;;;;5.43;3.75;;;14.00;99.90;;;15.75;61.97;98031.31;5031834;28;20862;-55
2023/08/10 04:19:00;;;;;;;4.45;3.83;;;14.00;99.90;;;15.76;61.78;98033.00;5032449;28;20045;-55
2023/08/10 04:21:28;;;;;;;5.95;3.53;;;14.00;99.90;;;15.76;61.52;98043.75;5022916;28;20053;-53
2023/08/10 04:23:55;;;;;;;5.43;4.20;;;14.00;99.90;;;15.73;61.58;98039.56;5032318;28;20045;-51
2023/08/10 04:26:23;;;;;;;7.38;4.60;;;13.90;99.90;;;15.70;61.68;98049.78;5032494;28;20336;-54
2023/08/10 04:28:51;;;;;;;7.07;3.90;;;13.80;99.90;;;15.66;61.58;98052.00;5031129;28;20049;-53
2023/08/10 04:31:19;;;;;;;5.85;4.35;;;13.70;99.90;;;15.63;61.71;98057.75;5032239;28;20516;-51
2023/08/10 04:33:47;;;;;;;4.00;3.58;;;13.70;99.90;;;15.62;62.06;98056.06;5032293;28;20049;-53
2023/08/10 04:36:14;;;;;;;6.07;3.47;;;13.80;99.90;;;15.60;62.03;98052.75;5031978;28;20053;-52
2023/08/10 04:38:42;;;;;;;6.55;4.25;;;13.80;99.90;;;15.60;62.21;98052.75;5032175;28;20416;-55
2023/08/10 04:41:10;;;;;;;6.28;4.28;;;13.80;99.90;;;15.65;62.42;98057.59;5023987;28;20424;-54
2023/08/10 04:43:38;;;;;;;4.70;3.75;;;13.90;99.90;;;15.66;62.48;98056.56;5031910;28;20046;-49
2023/08/10 04:46:05;;;;;;;5.18;4.13;;;13.90;99.90;;;15.68;62.50;98059.88;5032238;28;20041;-50
2023/08/10 04:48:33;;;;;;;4.82;3.67;;;14.00;99.90;;;15.69;62.49;98062.38;5031914;28;20045;-54
2023/08/10 04:51:01;;;;;;;4.70;3.55;;;14.00;99.90;;;15.72;62.66;98062.03;5031711;28;20048;-52
2023/08/10 04:53:29;;;;;;;5.32;4.00;;;14.00;99.90;;;15.73;62.66;98054.84;5032147;28;20068;-50
2023/08/10 04:55:57;;;;;;;5.15;3.70;;;14.00;99.90;;;15.73;62.54;98066.41;5031714;28;20116;-52
2023/08/10 04:58:25;;;;;;;5.80;4.10;;;14.00;99.90;;;15.74;62.52;98062.72;5031686;28;20076;-54
2023/08/10 05:00:53;;;;;;;5.78;4.18;;;14.00;99.90;;;15.75;62.69;98064.38;5031401;28;20060;-54
2023/08/10 05:03:21;;;;;;;6.45;3.75;;;14.10;99.90;;;15.77;62.74;98053.44;5031845;28;20104;-52
2023/08/10 05:05:51;;;;;;;4.88;4.22;;;14.10;99.90;;;15.80;62.91;98054.91;5032206;28;20061;-51
2023/08/10 05:08:18;;;;;;;4.47;3.75;;;14.10;99.90;;;15.84;63.01;98059.75;5031341;28;20060;-54
2023/08/10 05:10:46;;;;;;;6.15;3.70;;;14.20;99.90;;;15.87;63.25;98056.69;5031501;28;20056;-53
2023/08/10 05:13:14;;;;;;;4.97;4.20;;;14.20;99.90;;;15.90;63.18;98059.00;5031634;28;20045;-55
2023/08/10 05:15:41;;;;;;;5.43;4.60;;;14.30;99.90;;;15.92;63.30;98061.50;5031304;28;20049;-53
2023/08/10 05:18:09;;;;;;;5.95;4.15;;;14.30;99.90;;;15.94;63.40;98054.09;5031357;28;20413;-56
2023/08/10 05:20:40;;;;;;;5.00;4.05;;;14.30;99.90;;;15.98;63.34;98063.47;5031048;28;20051;-56
2023/08/10 05:23:07;;;;;;;4.53;3.85;;;14.30;99.90;;;16.01;63.47;98059.56;5031437;28;20049;-55
2023/08/10 05:25:35;;;;;;;4.63;3.70;;;14.40;99.90;;;16.07;63.41;98058.81;5031470;28;20045;-56
2023/08/10 05:28:03;;;;;;;6.70;3.63;;;14.50;99.90;;;16.11;63.57;98065.47;5031865;28;20046;-56
2023/08/10 05:30:31;;;;;;;5.47;4.97;;;14.50;99.90;;;16.17;63.47;98061.22;5031095;28;20052;-55
2023/08/10 05:32:58;;;;;;;5.47;3.97;;;14.60;99.90;;;16.25;63.67;98069.19;5031404;28;20056;-55
2023/08/10 05:35:26;;;;;;;4.82;4.03;;;14.70;99.90;;;16.31;63.92;98073.81;5031136;28;20080;-55
2023/08/10 05:37:54;;;;;;;5.20;4.53;;;14.80;99.90;;;16.40;64.06;98085.25;5030059;28;20103;-56
2023/08/10 05:40:22;;;;;;;5.95;4.28;;;14.90;99.90;;;16.50;64.22;98083.97;5030952;28;20049;-54
2023/08/10 05:42:50;;;;;;;5.90;3.72;;;15.00;99.90;;;16.61;64.20;98090.69;5030992;28;20054;-57
2023/08/10 05:45:19;;;;;;;4.35;3.92;;;15.20;99.90;;;16.70;64.45;98091.44;5030561;28;20057;-56
2023/08/10 05:47:50;;;;;;;5.60;3.67;;;15.30;99.90;;;16.80;64.02;98089.25;5031259;28;20049;-54
2023/08/10 05:50:18;;;;;;;4.55;3.75;;;15.40;99.90;;;16.87;64.03;98087.50;5022883;28;20042;-55
2023/08/10 05:52:46;;;;;;;4.78;4.18;;;15.40;99.90;;;16.96;63.96;98087.38;5029874;28;20053;-53
2023/08/10 05:55:14;;;;;;;5.53;4.22;;;15.50;99.90;;;17.01;63.88;98076.91;5030229;28;20500;-56
2023/08/10 05:57:42;;;;;;;6.97;3.85;;;15.60;99.90;;;17.09;63.90;98082.97;5031135;28;20049;-54
2023/08/10 06:00:13;;;;;;;5.57;4.30;;;15.60;99.90;;;17.17;63.77;98091.94;5029534;28;20057;-55
2023/08/10 06:02:42;;;;;;;4.80;3.83;;;15.70;99.90;;;17.22;63.70;98095.72;5030029;28;20048;-54
2023/08/10 06:05:10;;;;;;;6.25;3.92;;;15.80;99.90;;;17.28;63.83;98096.81;5029662;28;20041;-56
2023/08/10 06:07:37;;;;;;;5.63;4.53;;;15.80;99.90;;;17.35;63.70;98099.56;5030990;28;20045;-52
2023/08/10 06:10:05;;;;;;;6.22;4.38;;;15.90;99.90;;;17.39;63.46;98103.53;5030528;28;20275;-53
2023/08/10 06:12:33;;;;;;;5.15;4.15;;;15.90;99.90;;;17.44;63.46;98096.53;5031104;28;20501;-54
2023/08/10 06:15:01;;;;;;;5.55;4.35;;;16.00;99.90;;;17.46;63.48;98102.56;5030810;28;20072;-57
2023/08/10 06:17:28;;;;;;;5.78;4.35;;;16.00;99.90;;;17.50;63.44;98097.63;5030616;28;20418;-53
2023/08/10 06:19:57;;;;;;;5.43;4.35;;;16.00;99.90;;;17.56;63.30;98096.00;5028767;28;20054;-53
2023/08/10 06:22:27;;;;;;;5.30;4.18;;;16.10;99.90;;;17.62;63.33;98100.59;5030528;28;20056;-51
2023/08/10 06:24:54;;;;;;;6.43;4.32;;;16.10;99.90;;;17.68;63.47;98100.69;5030767;28;20592;-54
2023/08/10 06:27:22;;;;;;;6.78;4.72;;;16.20;99.90;;;17.75;63.34;98107.97;5030871;28;20432;-55
2023/08/10 06:29:49;;;;;;;5.65;4.60;;;16.20;99.90;;;17.80;63.23;98105.53;5030261;28;20069;-56
2023/08/10 06:32:18;;;;;;;7.43;4.68;;;16.30;99.90;;;17.84;63.24;98102.25;5030666;28;20046;-57
2023/08/10 06:34:45;;;;;;;7.50;4.38;;;16.40;99.90;;;17.89;63.19;98107.06;5033667;28;20060;-56
2023/08/10 06:37:15;;;;;;;8.07;5.47;;;16.40;99.90;;;17.90;63.01;98119.50;5034580;28;20045;-55
2023/08/10 06:39:46;;;;;;;6.05;4.70;;;16.40;99.90;;;17.96;62.94;98117.88;5034166;28;20053;-57
2023/08/10 06:42:14;;;;;;;6.10;4.53;;;16.50;99.90;;;17.95;62.92;98117.06;5029623;28;20041;-57
2023/08/10 06:44:44;;;;;;;7.35;4.72;;;16.50;99.90;;;17.98;62.76;98123.91;5032671;28;20042;-55
2023/08/10 06:47:12;;;;;;;4.80;4.30;;;16.50;99.90;;;18.01;62.82;98131.56;5016817;28;20416;-55
2023/08/10 06:49:40;;;;;;;6.22;4.60;;;16.50;99.90;;;18.05;62.82;98136.41;5030189;28;20037;-55
2023/08/10 06:52:09;;;;;;;4.82;4.25;;;16.60;99.90;;;18.14;62.71;98142.44;5032362;28;20053;-57
2023/08/10 06:54:37;;;;;;;5.93;4.72;;;16.70;99.90;;;18.20;62.48;98147.03;5033977;28;20042;-57
2023/08/10 06:57:06;;;;;;;4.50;3.92;;;16.70;99.90;;;18.24;62.38;98134.00;5033864;28;20049;-54
2023/08/10 06:59:34;;;;;;;5.97;4.30;;;16.80;99.90;;;18.25;62.27;98131.13;5033638;28;20477;-55
2023/08/10 07:02:06;;;;;;;7.88;4.53;;;16.80;99.90;;;18.28;62.30;98132.56;5032685;28;20429;-55
2023/08/10 07:04:39;;;;;;;6.75;4.35;;;16.80;99.90;;;18.33;62.42;98129.31;5033687;28;20046;-57
2023/08/10 07:07:07;;;;;;;6.05;4.40;;;16.80;99.90;;;18.37;62.26;98130.56;5032553;28;20052;-57
2023/08/10 07:09:36;;;;;;;5.63;4.22;;;16.90;99.90;;;18.38;62.27;98122.28;5032008;28;20140;-57
2023/08/10 07:12:04;;;;;;;5.68;4.20;;;17.00;99.90;;;18.44;62.39;98126.88;5033554;28;20492;-55
2023/08/10 07:14:32;;;;;;;4.28;3.58;;;17.10;99.90;;;18.50;62.29;98128.75;5032775;28;20056;-57
2023/08/10 07:17:00;;;;;;;5.53;4.57;;;17.20;99.90;;;18.57;62.46;98133.34;5033703;28;20050;-57
2023/08/10 07:19:27;;;;;;;4.78;3.88;;;17.20;99.90;;;18.63;62.48;98135.25;5033222;28;20045;-55
2023/08/10 07:21:55;;;;;;;5.20;4.70;;;17.40;99.90;;;18.69;62.40;98137.97;5033663;28;20042;-57
2023/08/10 07:24:23;;;;;;;4.85;4.28;;;17.40;99.90;;;18.75;62.10;98147.13;5033556;28;20033;-57
2023/08/10 07:26:54;;;;;;;5.80;4.47;;;17.50;99.90;;;18.79;62.01;98148.38;5033702;28;20049;-54
2023/08/10 07:29:22;;;;;;;5.03;4.50;;;17.50;99.90;;;18.84;62.07;98143.25;5033180;28;20045;-55
2023/08/10 07:31:51;;;;;;;7.63;5.80;;;17.50;99.90;;;18.89;61.78;98140.78;5033559;28;20523;-56
2023/08/10 07:34:19;;;;;;;5.22;4.25;;;17.60;99.90;;;18.92;62.11;98144.97;5033421;28;20041;-56
2023/08/10 07:36:46;;;;;;;6.15;5.30;;;17.60;99.90;;;18.95;61.95;98146.41;5031797;28;20053;-56
2023/08/10 07:39:14;;;;;;;5.70;4.97;;;17.70;99.90;;;18.94;61.87;98150.97;5033007;28;20037;-55
2023/08/10 07:41:41;;;;;;;7.80;4.65;;;17.70;99.90;;;18.98;62.11;98148.69;5032152;28;20232;-57
2023/08/10 07:44:09;;;;;;;9.57;4.72;;;17.80;99.90;;;19.03;62.22;98155.13;5033045;28;20060;-50
2023/08/10 07:46:37;;;;;;;6.55;4.30;;;17.80;99.90;;;19.14;61.97;98155.59;5031451;28;20432;-52
2023/08/10 07:49:05;;;;;;;10.80;5.00;;;17.90;99.90;;;19.19;61.71;98155.81;5032721;28;20045;-54
2023/08/10 07:51:32;;;;;;;5.70;4.35;;;17.90;99.90;;;19.24;61.68;98159.56;5033554;28;20041;-56
2023/08/10 07:54:00;;;;;;;6.10;4.55;;;18.00;99.90;;;19.30;61.68;98165.19;5033008;28;20496;-56
2023/08/10 07:56:27;;;;;;;7.10;4.72;;;18.00;99.90;;;19.34;61.41;98163.72;5033236;28;20412;-53
2023/08/10 07:58:55;;;;;;;5.75;4.13;;;18.10;99.90;;;19.35;61.17;98159.97;5032909;28;20512;-58
2023/08/10 08:01:22;;;;;;;6.00;4.72;;;18.10;99.90;;;19.38;61.10;98159.59;5032814;28;20045;-55
2023/08/10 08:03:50;;;;;;;5.80;4.38;;;18.00;99.90;;;19.41;60.68;98156.47;5031809;28;20045;-56
2023/08/10 08:06:18;;;;;;;5.70;4.25;;;18.00;99.90;;;19.39;60.44;98151.28;5032637;28;20048;-54
2023/08/10 08:08:46;;;;;;;5.45;3.85;;;18.10;99.90;;;19.40;60.34;98157.50;5032815;28;20037;-56
2023/08/10 08:11:13;;;;;;;4.68;4.18;;;18.00;99.90;;;19.37;59.87;98155.22;5032591;28;20042;-57
2023/08/10 08:13:41;;;;;;;6.43;4.40;;;17.90;99.90;;;19.33;59.58;98151.25;5031852;28;20402;-55
2023/08/10 08:16:10;;;;;;;5.95;4.38;;;17.80;99.90;;;19.32;59.65;98155.84;5031376;28;20048;-55
2023/08/10 08:18:53;;;;;;;5.28;4.55;;;17.80;99.90;;;19.32;59.87;98153.13;5031162;28;20037;-54
2023/08/10 08:21:26;;;;;;;5.00;4.22;;;17.80;99.90;;;19.34;60.38;98150.22;5032385;28;20072;-55
2023/08/10 08:23:55;;;;;;;;;;;17.90;99.90;;;19.35;60.61;98152.75;5032059;28;20033;-57
2023/08/10 08:26:24;;;;;;;5.28;4.78;;;18.00;99.90;;;19.39;60.73;98156.69;5032164;28;19921;-56
2023/08/10 08:28:51;;;;;;;6.93;5.35;;;18.00;99.90;;;19.39;60.96;98153.97;5032103;28;20048;-54
2023/08/10 08:31:19;;;;;;;5.90;4.35;;;18.00;99.90;;;19.40;60.79;98152.94;5033097;28;20397;-57
2023/08/10 08:33:47;;;;;;;4.30;3.65;;;18.10;99.90;;;19.40;60.31;98152.94;5033170;28;20049;-55
2023/08/10 08:36:15;;;;;;;5.63;4.10;;;18.10;99.90;;;19.43;60.48;98146.31;5032012;28;20046;-57
2023/08/10 08:38:42;;;;;;;6.53;5.05;;;18.10;99.90;;;19.45;60.49;98145.06;5032227;28;20045;-56
2023/08/10 08:41:18;;;;;;;5.05;4.20;;;18.20;99.90;;;19.49;61.09;98142.78;5032870;28;20049;-57
2023/08/10 08:43:47;;;;;;;5.57;4.15;;;18.30;99.90;;;19.54;60.92;98142.16;5032876;28;20397;-54
2023/08/10 08:46:18;;;;;;;5.28;4.78;;;18.30;99.90;;;19.58;60.92;98148.78;5030888;28;20044;-56
2023/08/10 08:48:46;;;;;;;7.28;5.13;;;18.40;99.90;;;19.60;60.73;98144.88;5032693;28;20477;-56
2023/08/10 08:51:14;;;;;;;5.05;4.05;;;18.40;99.90;;;19.65;60.44;98144.25;5033169;28;20048;-57
2023/08/10 08:53:42;;;;;;;4.82;4.40;;;18.50;99.90;;;19.66;60.63;98143.22;5031770;28;20041;-55
2023/08/10 08:56:10;;;;;;;5.80;5.20;;;18.50;99.90;;;19.69;60.64;98142.78;5023175;28;20053;-58
2023/08/10 08:58:37;;;;;;;5.32;4.63;;;18.50;99.90;;;19.73;60.71;98148.63;5032281;28;20045;-56
2023/08/10 09:01:08;;;;;;;6.20;5.32;;;18.50;99.90;;;19.78;60.89;98135.34;5031366;28;20045;-57
2023/08/10 09:03:36;;;;;;;7.68;5.43;;;18.60;99.90;;;19.81;61.13;98133.06;5024809;28;20046;-55
2023/08/10 09:06:05;;;;;;;6.18;5.53;;;18.70;99.90;;;19.85;60.53;98133.44;5031603;28;20048;-57
2023/08/10 09:08:33;;;;;;;6.97;6.13;;;18.70;99.90;;;19.83;60.43;98133.69;5032189;28;20052;-56
2023/08/10 09:11:02;;;;;;;6.35;5.13;;;18.70;99.90;;;19.85;60.59;98136.16;5029211;28;20048;-56
2023/08/10 09:13:30;;;;;;;7.63;5.80;;;18.70;99.90;;;19.88;60.59;98133.06;5029045;28;20441;-53
2023/08/10 09:16:08;;;;;;;7.25;5.15;;;18.70;99.90;;;19.92;60.21;98128.88;5032111;28;20076;-55
2023/08/10 09:18:39;;;;;;;6.85;5.20;;;18.80;99.70;;;19.97;60.21;98130.97;5016508;28;20057;-57
2023/08/10 09:21:23;;;;;;;7.45;5.43;;;18.80;99.90;;;19.98;60.18;98128.03;5018104;28;20048;-57
2023/08/10 09:23:54;;;;;;;6.40;5.45;;;18.90;99.10;;;20.05;60.00;98125.34;5025756;28;20056;-57
2023/08/10 09:26:23;;;;;;;5.00;4.50;;;18.90;99.10;;;20.10;59.84;98128.22;5026746;28;20041;-56
2023/08/10 09:28:51;;;;;;;5.90;5.00;;;19.00;98.80;;;20.14;60.26;98129.50;5027030;28;20042;-56
2023/08/10 09:31:27;;;;;;;7.40;4.68;;;19.00;98.80;;;20.21;59.94;98118.66;5007665;28;20057;-53
2023/08/10 09:33:59;;;;;;;5.70;4.85;;;19.10;98.50;;;20.28;59.63;98116.78;5026373;28;20053;-57
2023/08/10 09:36:29;;;;;;;8.38;5.50;;;19.10;98.30;;;20.35;59.53;98108.63;5022079;28;20045;-57
2023/08/10 09:38:57;;;;;;;6.28;5.43;;;19.20;97.80;;;20.41;59.35;98107.78;5026150;28;20042;-57
2023/08/10 09:41:30;;;;;;;7.00;4.93;;;19.30;97.60;;;20.47;59.24;98106.91;5024831;28;20071;-57
2023/08/10 09:43:57;;;;;;;6.97;5.15;;;19.30;97.40;;;20.51;59.40;98105.47;5025499;28;20413;-56
2023/08/10 09:46:25;;;;;;;7.55;5.85;;;19.40;96.80;;;20.54;59.38;98115.03;5027590;28;20277;-56
2023/08/10 09:48:53;;;;;;;5.32;4.68;;;19.40;96.40;;;20.55;58.79;98109.41;5030752;28;20397;-57
2023/08/10 09:51:21;;;;;;;5.82;5.22;;;19.40;95.70;;;20.55;58.54;98108.56;5031113;28;20045;-57
2023/08/10 09:53:49;;;;;;;5.53;5.00;;;19.50;94.20;;;20.58;58.57;98092.72;5029163;28;20152;-57
2023/08/10 09:56:17;;;;;;;7.63;5.10;;;19.40;95.10;;;20.65;58.87;98090.88;5030546;28;20328;-57
2023/08/10 09:58:45;;;;;;;6.43;5.18;;;19.50;95.80;;;20.70;58.64;98100.22;5027927;28;20398;-58
2023/08/10 10:01:12;;;;;;;7.03;5.10;;;19.60;95.30;;;20.78;58.74;98097.25;5011687;28;20057;-56
2023/08/10 10:03:44;;;;;;;5.63;4.80;;;19.70;95.00;;;20.85;58.01;98096.19;5023124;28;20068;-56
2023/08/10 10:06:14;;;;;;;5.28;4.78;;;19.80;94.10;;;20.91;58.34;98089.06;5029926;28;20511;-58
2023/08/10 10:08:56;;;;;;;6.15;5.55;;;19.80;94.10;;;20.97;57.23;98090.91;5010828;28;20054;-57
2023/08/10 10:11:27;;;;;;;5.05;4.05;;;19.90;91.50;;;20.99;57.25;98093.41;5028154;28;20042;-58
2023/08/10 10:13:57;;;;;;;8.63;5.40;;;19.90;90.60;;;21.00;55.99;98089.66;5026615;28;20045;-57
2023/08/10 10:16:27;;;;;;;6.65;5.97;;;19.90;88.90;;;21.02;56.13;98092.97;5032480;28;20046;-58
2023/08/10 10:18:55;;;;;;;5.97;5.10;;;19.90;88.60;;;21.01;56.51;98084.03;5033689;28;20500;-60
2023/08/10 10:21:23;;;;;;;6.53;4.45;;;19.90;89.10;;;21.07;56.42;98076.06;5033452;28;20425;-59
2023/08/10 10:23:55;;;;;;;5.78;4.30;;;19.90;89.60;;;21.13;56.93;98069.78;5033189;28;20469;-59
2023/08/10 10:26:22;;;;;;;9.20;4.30;;;20.10;90.60;;;21.22;56.74;98074.72;5034644;28;20413;-60
2023/08/10 10:29:13;;;;;;;5.20;4.47;;;20.20;90.40;;;21.32;56.57;98074.22;5034706;28;20046;-60